sensor_id;sensor_type;location;lat;lon;timestamp;noise_LAeq;noise_LA_min;noise_LA_max;noise_LA01;noise_LA95
67306;Laerm;57661;51.436;5.978;2023-08-01T00:00:03;28.10;27.17;28.89;;
67306;Laerm;57661;51.436;5.978;2023-08-01T00:00:15;28.68;27.21;33.73;;
67306;Laerm;57661;51.436;5.978;2023-08-01T00:00:25;28.09;27.13;29.10;;
67306;Laerm;57661;51.436;5.978;2023-08-01T00:00:36;28.10;27.20;29.03;;
67306;Laerm;57661;51.436;5.978;2023-08-01T00:00:46;28.10;27.09;28.82;;
67306;Laerm;57661;51.436;5.978;2023-08-01T00:00:56;28.11;27.10;29.27;;
67306;Laerm;57661;51.436;5.978;2023-08-01T00:01:06;28.11;27.15;29.11;;
67306;Laerm;57661;51.436;5.978;2023-08-01T00:01:16;28.10;27.18;28.98;;
67306;Laerm;57661;51.436;5.978;2023-08-01T00:01:27;28.14;27.34;28.86;;
67306;Laerm;57661;51.436;5.978;2023-08-01T00:01:37;31.19;27.37;39.84;;
67306;Laerm;57661;51.436;5.978;2023-08-01T00:01:48;36.12;30.34;44.07;;
67306;Laerm;57661;51.436;5.978;2023-08-01T00:01:58;35.58;30.83;40.43;;
67306;Laerm;57661;51.436;5.978;2023-08-01T00:02:08;34.51;28.29;40.37;;
67306;Laerm;57661;51.436;5.978;2023-08-01T00:02:18;28.36;27.38;30.84;;
67306;Laerm;57661;51.436;5.978;2023-08-01T00:02:28;28.10;27.15;29.01;;
67306;Laerm;57661;51.436;5.978;2023-08-01T00:02:39;28.55;27.15;40.76;;
67306;Laerm;57661;51.436;5.978;2023-08-01T00:02:52;28.07;26.90;28.88;;
67306;Laerm;57661;51.436;5.978;2023-08-01T00:03:02;28.08;27.26;29.01;;
67306;Laerm;57661;51.436;5.978;2023-08-01T00:03:12;28.10;27.29;29.07;;
67306;Laerm;57661;51.436;5.978;2023-08-01T00:03:23;28.08;27.12;29.32;;
67306;Laerm;57661;51.436;5.978;2023-08-01T00:03:33;28.10;27.24;28.95;;
67306;Laerm;57661;51.436;5.978;2023-08-01T00:03:43;28.10;27.08;29.12;;
67306;Laerm;57661;51.436;5.978;2023-08-01T00:03:54;28.08;27.06;28.94;;
67306;Laerm;57661;51.436;5.978;2023-08-01T00:04:04;28.09;27.23;29.06;;
67306;Laerm;57661;51.436;5.978;2023-08-01T00:04:14;28.13;27.14;29.16;;
67306;Laerm;57661;51.436;5.978;2023-08-01T00:04:24;28.09;27.37;29.11;;
67306;Laerm;57661;51.436;5.978;2023-08-01T00:04:35;28.09;26.94;28.85;;
67306;Laerm;57661;51.436;5.978;2023-08-01T00:04:45;28.11;27.19;28.84;;
67306;Laerm;57661;51.436;5.978;2023-08-01T00:04:55;28.08;27.02;28.93;;
67306;Laerm;57661;51.436;5.978;2023-08-01T00:05:05;28.10;27.02;28.91;;
67306;Laerm;57661;51.436;5.978;2023-08-01T00:05:16;28.11;27.24;29.89;;
67306;Laerm;57661;51.436;5.978;2023-08-01T00:05:26;28.10;27.11;30.88;;
67306;Laerm;57661;51.436;5.978;2023-08-01T00:05:36;28.06;27.19;29.06;;
67306;Laerm;57661;51.436;5.978;2023-08-01T00:05:47;28.09;26.79;28.95;;
67306;Laerm;57661;51.436;5.978;2023-08-01T00:05:57;28.10;27.19;28.99;;
67306;Laerm;57661;51.436;5.978;2023-08-01T00:06:08;28.11;26.78;29.11;;
67306;Laerm;57661;51.436;5.978;2023-08-01T00:06:18;28.10;27.28;29.06;;
67306;Laerm;57661;51.436;5.978;2023-08-01T00:06:29;28.09;26.89;29.00;;
67306;Laerm;57661;51.436;5.978;2023-08-01T00:06:40;28.10;27.25;28.80;;
67306;Laerm;57661;51.436;5.978;2023-08-01T00:06:50;28.08;26.97;28.87;;
67306;Laerm;57661;51.436;5.978;2023-08-01T00:07:00;28.09;27.19;28.88;;
67306;Laerm;57661;51.436;5.978;2023-08-01T00:07:10;28.12;27.19;29.06;;
67306;Laerm;57661;51.436;5.978;2023-08-01T00:07:20;28.13;27.19;28.99;;
67306;Laerm;57661;51.436;5.978;2023-08-01T00:07:31;28.08;27.30;29.01;;
67306;Laerm;57661;51.436;5.978;2023-08-01T00:07:41;28.10;26.91;28.91;;
67306;Laerm;57661;51.436;5.978;2023-08-01T00:07:52;28.07;27.14;28.82;;
67306;Laerm;57661;51.436;5.978;2023-08-01T00:08:02;28.06;26.91;28.95;;
67306;Laerm;57661;51.436;5.978;2023-08-01T00:08:13;28.12;26.96;28.90;;
67306;Laerm;57661;51.436;5.978;2023-08-01T00:08:26;28.07;27.04;28.88;;
67306;Laerm;57661;51.436;5.978;2023-08-01T00:08:36;28.09;27.20;28.87;;
67306;Laerm;57661;51.436;5.978;2023-08-01T00:08:47;28.06;27.00;29.00;;
67306;Laerm;57661;51.436;5.978;2023-08-01T00:08:57;28.09;26.97;28.93;;
67306;Laerm;57661;51.436;5.978;2023-08-01T00:09:07;28.11;27.20;29.04;;
67306;Laerm;57661;51.436;5.978;2023-08-01T00:09:17;28.06;27.04;28.80;;
67306;Laerm;57661;51.436;5.978;2023-08-01T00:09:28;28.08;27.03;28.97;;
67306;Laerm;57661;51.436;5.978;2023-08-01T00:09:41;28.08;27.10;28.92;;
67306;Laerm;57661;51.436;5.978;2023-08-01T00:09:51;28.10;27.17;29.00;;
67306;Laerm;57661;51.436;5.978;2023-08-01T00:10:01;28.07;27.09;28.98;;
67306;Laerm;57661;51.436;5.978;2023-08-01T00:10:11;28.09;27.06;28.95;;
67306;Laerm;57661;51.436;5.978;2023-08-01T00:10:22;28.12;27.15;29.17;;
67306;Laerm;57661;51.436;5.978;2023-08-01T00:10:32;28.22;27.26;29.34;;
67306;Laerm;57661;51.436;5.978;2023-08-01T00:10:42;28.09;27.06;28.91;;
67306;Laerm;57661;51.436;5.978;2023-08-01T00:10:52;28.10;27.10;29.03;;
67306;Laerm;57661;51.436;5.978;2023-08-01T00:11:03;28.05;27.15;28.88;;
67306;Laerm;57661;51.436;5.978;2023-08-01T00:11:13;28.09;27.15;29.07;;
67306;Laerm;57661;51.436;5.978;2023-08-01T00:11:24;28.11;27.09;29.10;;
67306;Laerm;57661;51.436;5.978;2023-08-01T00:11:34;28.06;27.12;28.94;;
67306;Laerm;57661;51.436;5.978;2023-08-01T00:11:44;28.11;27.17;29.01;;
67306;Laerm;57661;51.436;5.978;2023-08-01T00:11:55;28.11;26.91;29.21;;
67306;Laerm;57661;51.436;5.978;2023-08-01T00:12:05;28.10;27.36;29.01;;
67306;Laerm;57661;51.436;5.978;2023-08-01T00:12:15;28.10;27.20;28.91;;
67306;Laerm;57661;51.436;5.978;2023-08-01T00:12:26;28.12;27.31;29.15;;
67306;Laerm;57661;51.436;5.978;2023-08-01T00:12:37;28.09;27.19;29.04;;
67306;Laerm;57661;51.436;5.978;2023-08-01T00:12:47;28.09;27.02;29.00;;
67306;Laerm;57661;51.436;5.978;2023-08-01T00:12:57;28.09;27.13;28.90;;
67306;Laerm;57661;51.436;5.978;2023-08-01T00:13:08;28.09;27.26;29.07;;
67306;Laerm;57661;51.436;5.978;2023-08-01T00:13:18;28.11;27.16;29.05;;
67306;Laerm;57661;51.436;5.978;2023-08-01T00:13:28;28.29;27.30;29.38;;
67306;Laerm;57661;51.436;5.978;2023-08-01T00:13:39;28.81;27.70;29.88;;
67306;Laerm;57661;51.436;5.978;2023-08-01T00:13:49;29.28;28.16;30.24;;
67306;Laerm;57661;51.436;5.978;2023-08-01T00:13:59;30.24;28.60;37.65;;
67306;Laerm;57661;51.436;5.978;2023-08-01T00:14:09;30.88;28.80;37.86;;
67306;Laerm;57661;51.436;5.978;2023-08-01T00:14:19;30.59;28.70;38.31;;
67306;Laerm;57661;51.436;5.978;2023-08-01T00:14:30;30.53;28.21;38.00;;
67306;Laerm;57661;51.436;5.978;2023-08-01T00:14:40;30.50;28.20;38.93;;
67306;Laerm;57661;51.436;5.978;2023-08-01T00:14:50;30.66;27.62;40.56;;
67306;Laerm;57661;51.436;5.978;2023-08-01T00:15:01;30.48;28.31;39.54;;
67306;Laerm;57661;51.436;5.978;2023-08-01T00:15:11;31.19;28.64;40.56;;
67306;Laerm;57661;51.436;5.978;2023-08-01T00:15:22;30.91;28.72;38.78;;
67306;Laerm;57661;51.436;5.978;2023-08-01T00:15:32;31.07;28.59;39.14;;
67306;Laerm;57661;51.436;5.978;2023-08-01T00:15:42;31.25;29.07;38.87;;
67306;Laerm;57661;51.436;5.978;2023-08-01T00:15:53;31.46;28.86;39.62;;
67306;Laerm;57661;51.436;5.978;2023-08-01T00:16:03;31.62;29.34;39.32;;
67306;Laerm;57661;51.436;5.978;2023-08-01T00:16:13;31.68;29.17;38.88;;
67306;Laerm;57661;51.436;5.978;2023-08-01T00:16:24;31.74;29.22;38.70;;
67306;Laerm;57661;51.436;5.978;2023-08-01T00:16:34;31.42;28.70;39.16;;
67306;Laerm;57661;51.436;5.978;2023-08-01T00:16:45;30.87;28.46;38.81;;
67306;Laerm;57661;51.436;5.978;2023-08-01T00:16:55;30.45;28.26;39.08;;
67306;Laerm;57661;51.436;5.978;2023-08-01T00:17:05;29.89;27.89;41.68;;
67306;Laerm;57661;51.436;5.978;2023-08-01T00:17:15;29.52;27.62;37.87;;
67306;Laerm;57661;51.436;5.978;2023-08-01T00:17:26;29.52;27.49;37.60;;
67306;Laerm;57661;51.436;5.978;2023-08-01T00:17:36;29.19;27.37;38.94;;
67306;Laerm;57661;51.436;5.978;2023-08-01T00:17:46;28.80;26.95;38.38;;
67306;Laerm;57661;51.436;5.978;2023-08-01T00:17:56;28.81;27.26;37.30;;
67306;Laerm;57661;51.436;5.978;2023-08-01T00:18:07;28.95;27.24;38.43;;
67306;Laerm;57661;51.436;5.978;2023-08-01T00:18:20;28.65;27.18;37.70;;
67306;Laerm;57661;51.436;5.978;2023-08-01T00:18:30;28.78;27.31;39.61;;
67306;Laerm;57661;51.436;5.978;2023-08-01T00:18:40;28.65;27.23;36.90;;
67306;Laerm;57661;51.436;5.978;2023-08-01T00:18:50;29.16;27.24;39.57;;
67306;Laerm;57661;51.436;5.978;2023-08-01T00:19:01;29.13;27.22;39.44;;
67306;Laerm;57661;51.436;5.978;2023-08-01T00:19:11;29.14;27.21;40.27;;
67306;Laerm;57661;51.436;5.978;2023-08-01T00:19:22;29.05;27.36;39.67;;
67306;Laerm;57661;51.436;5.978;2023-08-01T00:19:32;29.23;27.42;39.90;;
67306;Laerm;57661;51.436;5.978;2023-08-01T00:19:42;29.23;27.44;38.03;;
67306;Laerm;57661;51.436;5.978;2023-08-01T00:19:53;29.34;27.76;38.63;;
67306;Laerm;57661;51.436;5.978;2023-08-01T00:20:06;29.33;27.36;37.92;;
67306;Laerm;57661;51.436;5.978;2023-08-01T00:20:16;29.48;27.28;38.93;;
67306;Laerm;57661;51.436;5.978;2023-08-01T00:20:27;28.98;27.30;39.31;;
67306;Laerm;57661;51.436;5.978;2023-08-01T00:20:37;28.95;27.30;38.90;;
67306;Laerm;57661;51.436;5.978;2023-08-01T00:20:51;28.64;27.09;38.92;;
67306;Laerm;57661;51.436;5.978;2023-08-01T00:21:02;28.75;27.24;40.09;;
67306;Laerm;57661;51.436;5.978;2023-08-01T00:21:12;28.77;27.02;40.01;;
67306;Laerm;57661;51.436;5.978;2023-08-01T00:21:23;28.45;27.29;36.81;;
67306;Laerm;57661;51.436;5.978;2023-08-01T00:21:33;28.67;27.10;38.75;;
67306;Laerm;57661;51.436;5.978;2023-08-01T00:21:43;28.57;27.17;38.87;;
67306;Laerm;57661;51.436;5.978;2023-08-01T00:21:53;28.70;27.22;40.73;;
67306;Laerm;57661;51.436;5.978;2023-08-01T00:22:04;28.64;27.35;39.29;;
67306;Laerm;57661;51.436;5.978;2023-08-01T00:22:14;28.58;26.93;38.07;;
67306;Laerm;57661;51.436;5.978;2023-08-01T00:22:24;28.55;27.08;38.96;;
67306;Laerm;57661;51.436;5.978;2023-08-01T00:22:34;28.72;27.27;39.09;;
67306;Laerm;57661;51.436;5.978;2023-08-01T00:22:45;28.79;27.07;37.94;;
67306;Laerm;57661;51.436;5.978;2023-08-01T00:22:55;28.63;27.10;38.50;;
67306;Laerm;57661;51.436;5.978;2023-08-01T00:23:05;28.80;26.98;38.54;;
67306;Laerm;57661;51.436;5.978;2023-08-01T00:23:15;28.44;27.25;37.89;;
67306;Laerm;57661;51.436;5.978;2023-08-01T00:23:26;28.87;27.19;38.19;;
67306;Laerm;57661;51.436;5.978;2023-08-01T00:23:36;28.56;27.08;37.52;;
67306;Laerm;57661;51.436;5.978;2023-08-01T00:23:46;28.58;27.31;35.60;;
67306;Laerm;57661;51.436;5.978;2023-08-01T00:23:57;28.88;27.16;38.51;;
67306;Laerm;57661;51.436;5.978;2023-08-01T00:24:07;28.58;27.08;37.45;;
67306;Laerm;57661;51.436;5.978;2023-08-01T00:24:18;28.59;27.31;37.18;;
67306;Laerm;57661;51.436;5.978;2023-08-01T00:24:28;28.64;27.23;39.46;;
67306;Laerm;57661;51.436;5.978;2023-08-01T00:24:38;28.95;27.20;38.61;;
67306;Laerm;57661;51.436;5.978;2023-08-01T00:24:49;28.57;27.22;35.89;;
67306;Laerm;57661;51.436;5.978;2023-08-01T00:24:59;28.92;27.39;37.83;;
67306;Laerm;57661;51.436;5.978;2023-08-01T00:25:09;29.20;27.09;40.13;;
67306;Laerm;57661;51.436;5.978;2023-08-01T00:25:19;29.15;27.50;37.32;;
67306;Laerm;57661;51.436;5.978;2023-08-01T00:25:30;29.13;27.33;39.34;;
67306;Laerm;57661;51.436;5.978;2023-08-01T00:25:40;29.02;27.16;38.17;;
67306;Laerm;57661;51.436;5.978;2023-08-01T00:25:50;28.89;27.36;37.69;;
67306;Laerm;57661;51.436;5.978;2023-08-01T00:26:01;28.59;27.09;37.92;;
67306;Laerm;57661;51.436;5.978;2023-08-01T00:26:12;28.60;27.27;37.64;;
67306;Laerm;57661;51.436;5.978;2023-08-01T00:26:22;28.73;27.23;36.78;;
67306;Laerm;57661;51.436;5.978;2023-08-01T00:26:32;28.57;27.33;37.25;;
67306;Laerm;57661;51.436;5.978;2023-08-01T00:26:43;28.73;27.04;37.65;;
67306;Laerm;57661;51.436;5.978;2023-08-01T00:26:53;28.55;27.32;36.82;;
67306;Laerm;57661;51.436;5.978;2023-08-01T00:27:05;28.56;27.34;37.09;;
67306;Laerm;57661;51.436;5.978;2023-08-01T00:27:19;28.55;27.20;37.30;;
67306;Laerm;57661;51.436;5.978;2023-08-01T00:27:29;28.31;27.04;36.62;;
67306;Laerm;57661;51.436;5.978;2023-08-01T00:27:42;28.50;27.25;36.68;;
67306;Laerm;57661;51.436;5.978;2023-08-01T00:27:52;28.41;27.24;36.95;;
67306;Laerm;57661;51.436;5.978;2023-08-01T00:28:02;28.63;27.31;36.14;;
67306;Laerm;57661;51.436;5.978;2023-08-01T00:28:13;28.50;27.26;37.41;;
67306;Laerm;57661;51.436;5.978;2023-08-01T00:28:23;28.56;27.24;38.18;;
67306;Laerm;57661;51.436;5.978;2023-08-01T00:28:33;28.75;27.44;40.22;;
67306;Laerm;57661;51.436;5.978;2023-08-01T00:28:44;28.82;27.13;39.47;;
67306;Laerm;57661;51.436;5.978;2023-08-01T00:28:54;28.56;27.34;35.88;;
67306;Laerm;57661;51.436;5.978;2023-08-01T00:29:04;28.65;27.33;38.35;;
67306;Laerm;57661;51.436;5.978;2023-08-01T00:29:14;28.61;27.12;37.09;;
67306;Laerm;57661;51.436;5.978;2023-08-01T00:29:28;28.89;27.16;38.54;;
67306;Laerm;57661;51.436;5.978;2023-08-01T00:29:38;29.11;27.06;38.29;;
67306;Laerm;57661;51.436;5.978;2023-08-01T00:29:48;36.93;27.97;44.59;;
67306;Laerm;57661;51.436;5.978;2023-08-01T00:29:58;33.94;30.78;38.41;;
67306;Laerm;57661;51.436;5.978;2023-08-01T00:30:09;35.41;31.08;40.60;;
67306;Laerm;57661;51.436;5.978;2023-08-01T00:30:19;30.80;27.42;37.50;;
67306;Laerm;57661;51.436;5.978;2023-08-01T00:30:29;28.92;27.30;37.53;;
67306;Laerm;57661;51.436;5.978;2023-08-01T00:30:39;28.93;27.14;38.58;;
67306;Laerm;57661;51.436;5.978;2023-08-01T00:30:50;28.78;27.36;37.52;;
67306;Laerm;57661;51.436;5.978;2023-08-01T00:31:06;28.85;27.23;38.00;;
67306;Laerm;57661;51.436;5.978;2023-08-01T00:31:16;29.34;27.03;38.25;;
67306;Laerm;57661;51.436;5.978;2023-08-01T00:31:27;28.78;27.19;36.68;;
67306;Laerm;57661;51.436;5.978;2023-08-01T00:31:37;28.50;27.31;37.88;;
67306;Laerm;57661;51.436;5.978;2023-08-01T00:31:47;28.80;27.16;36.87;;
67306;Laerm;57661;51.436;5.978;2023-08-01T00:31:57;28.45;27.29;38.66;;
67306;Laerm;57661;51.436;5.978;2023-08-01T00:32:08;28.63;27.22;37.36;;
67306;Laerm;57661;51.436;5.978;2023-08-01T00:32:18;28.55;27.07;38.77;;
67306;Laerm;57661;51.436;5.978;2023-08-01T00:32:28;28.66;27.13;37.06;;
67306;Laerm;57661;51.436;5.978;2023-08-01T00:32:41;28.34;27.21;35.79;;
67306;Laerm;57661;51.436;5.978;2023-08-01T00:32:52;28.54;27.09;37.12;;
67306;Laerm;57661;51.436;5.978;2023-08-01T00:33:02;28.60;26.90;36.25;;
67306;Laerm;57661;51.436;5.978;2023-08-01T00:33:12;28.29;27.09;35.75;;
67306;Laerm;57661;51.436;5.978;2023-08-01T00:33:23;28.54;27.14;37.41;;
67306;Laerm;57661;51.436;5.978;2023-08-01T00:33:33;28.46;27.19;37.31;;
67306;Laerm;57661;51.436;5.978;2023-08-01T00:33:43;28.59;27.21;37.10;;
67306;Laerm;57661;51.436;5.978;2023-08-01T00:33:53;28.32;27.00;35.84;;
67306;Laerm;57661;51.436;5.978;2023-08-01T00:34:04;28.42;27.21;36.56;;
67306;Laerm;57661;51.436;5.978;2023-08-01T00:34:14;28.47;26.95;37.33;;
67306;Laerm;57661;51.436;5.978;2023-08-01T00:34:24;28.24;27.15;36.91;;
67306;Laerm;57661;51.436;5.978;2023-08-01T00:34:34;28.49;27.02;37.09;;
67306;Laerm;57661;51.436;5.978;2023-08-01T00:34:45;28.30;26.95;36.69;;
67306;Laerm;57661;51.436;5.978;2023-08-01T00:34:55;28.36;27.05;37.23;;
67306;Laerm;57661;51.436;5.978;2023-08-01T00:35:05;28.39;26.97;36.48;;
67306;Laerm;57661;51.436;5.978;2023-08-01T00:35:15;28.18;27.20;36.01;;
67306;Laerm;57661;51.436;5.978;2023-08-01T00:35:26;28.44;27.21;37.21;;
67306;Laerm;57661;51.436;5.978;2023-08-01T00:35:36;28.33;26.79;35.06;;
67306;Laerm;57661;51.436;5.978;2023-08-01T00:35:52;28.09;26.94;28.78;;
67306;Laerm;57661;51.436;5.978;2023-08-01T00:36:03;28.30;27.14;37.16;;
67306;Laerm;57661;51.436;5.978;2023-08-01T00:36:18;28.23;27.00;37.31;;
67306;Laerm;57661;51.436;5.978;2023-08-01T00:36:29;28.23;27.19;35.65;;
67306;Laerm;57661;51.436;5.978;2023-08-01T00:36:39;28.33;27.12;37.44;;
67306;Laerm;57661;51.436;5.978;2023-08-01T00:36:49;28.27;27.25;37.94;;
67306;Laerm;57661;51.436;5.978;2023-08-01T00:36:59;28.28;26.94;35.02;;
67306;Laerm;57661;51.436;5.978;2023-08-01T00:37:10;28.09;26.97;29.12;;
67306;Laerm;57661;51.436;5.978;2023-08-01T00:37:21;28.25;27.15;34.75;;
67306;Laerm;57661;51.436;5.978;2023-08-01T00:37:31;28.28;27.35;34.34;;
67306;Laerm;57661;51.436;5.978;2023-08-01T00:37:41;28.22;27.01;34.64;;
67306;Laerm;57661;51.436;5.978;2023-08-01T00:37:51;28.27;27.12;34.58;;
67306;Laerm;57661;51.436;5.978;2023-08-01T00:38:02;28.22;26.97;35.69;;
67306;Laerm;57661;51.436;5.978;2023-08-01T00:38:12;28.23;27.16;34.71;;
67306;Laerm;57661;51.436;5.978;2023-08-01T00:38:22;28.38;27.25;38.74;;
67306;Laerm;57661;51.436;5.978;2023-08-01T00:38:32;28.33;27.30;38.34;;
67306;Laerm;57661;51.436;5.978;2023-08-01T00:38:43;28.32;27.15;37.71;;
67306;Laerm;57661;51.436;5.978;2023-08-01T00:38:53;28.16;27.24;33.09;;
67306;Laerm;57661;51.436;5.978;2023-08-01T00:39:03;28.27;27.14;35.06;;
67306;Laerm;57661;51.436;5.978;2023-08-01T00:39:14;28.48;27.11;38.47;;
67306;Laerm;57661;51.436;5.978;2023-08-01T00:39:24;28.21;27.04;36.38;;
67306;Laerm;57661;51.436;5.978;2023-08-01T00:39:34;28.25;27.35;36.51;;
67306;Laerm;57661;51.436;5.978;2023-08-01T00:39:44;28.70;27.00;41.88;;
67306;Laerm;57661;51.436;5.978;2023-08-01T00:39:54;28.26;27.14;37.46;;
67306;Laerm;57661;51.436;5.978;2023-08-01T00:40:05;28.31;27.16;36.51;;
67306;Laerm;57661;51.436;5.978;2023-08-01T00:40:15;28.16;26.97;34.09;;
67306;Laerm;57661;51.436;5.978;2023-08-01T00:40:30;28.52;27.29;39.02;;
67306;Laerm;57661;51.436;5.978;2023-08-01T00:40:41;28.20;27.15;36.22;;
67306;Laerm;57661;51.436;5.978;2023-08-01T00:40:51;28.17;27.09;35.69;;
67306;Laerm;57661;51.436;5.978;2023-08-01T00:41:01;28.60;27.24;39.51;;
67306;Laerm;57661;51.436;5.978;2023-08-01T00:41:12;28.43;27.26;37.05;;
67306;Laerm;57661;51.436;5.978;2023-08-01T00:41:22;28.23;27.08;32.95;;
67306;Laerm;57661;51.436;5.978;2023-08-01T00:41:32;28.64;27.29;38.05;;
67306;Laerm;57661;51.436;5.978;2023-08-01T00:41:42;28.13;27.07;30.73;;
67306;Laerm;57661;51.436;5.978;2023-08-01T00:41:53;28.28;27.28;35.89;;
67306;Laerm;57661;51.436;5.978;2023-08-01T00:42:03;28.74;27.31;41.09;;
67306;Laerm;57661;51.436;5.978;2023-08-01T00:42:13;28.36;27.44;36.54;;
67306;Laerm;57661;51.436;5.978;2023-08-01T00:42:23;28.62;26.80;39.41;;
67306;Laerm;57661;51.436;5.978;2023-08-01T00:42:35;28.76;27.20;39.12;;
67306;Laerm;57661;51.436;5.978;2023-08-01T00:42:45;28.63;27.12;40.78;;
67306;Laerm;57661;51.436;5.978;2023-08-01T00:42:56;28.30;27.27;36.37;;
67306;Laerm;57661;51.436;5.978;2023-08-01T00:43:06;28.69;27.31;38.80;;
67306;Laerm;57661;51.436;5.978;2023-08-01T00:43:16;28.66;27.18;39.69;;
67306;Laerm;57661;51.436;5.978;2023-08-01T00:43:27;28.37;27.25;35.67;;
67306;Laerm;57661;51.436;5.978;2023-08-01T00:43:37;28.40;27.12;37.77;;
67306;Laerm;57661;51.436;5.978;2023-08-01T00:43:47;28.29;27.05;34.84;;
67306;Laerm;57661;51.436;5.978;2023-08-01T00:43:57;28.26;27.18;35.05;;
67306;Laerm;57661;51.436;5.978;2023-08-01T00:44:08;28.56;26.69;39.03;;
67306;Laerm;57661;51.436;5.978;2023-08-01T00:44:18;28.15;27.24;30.43;;
67306;Laerm;57661;51.436;5.978;2023-08-01T00:44:28;28.69;27.25;40.99;;
67306;Laerm;57661;51.436;5.978;2023-08-01T00:44:38;28.20;27.01;34.77;;
67306;Laerm;57661;51.436;5.978;2023-08-01T00:44:49;28.46;27.34;38.08;;
67306;Laerm;57661;51.436;5.978;2023-08-01T00:44:59;28.48;27.08;39.15;;
67306;Laerm;57661;51.436;5.978;2023-08-01T00:45:10;28.41;27.21;39.61;;
67306;Laerm;57661;51.436;5.978;2023-08-01T00:45:21;28.13;26.97;32.79;;
67306;Laerm;57661;51.436;5.978;2023-08-01T00:45:31;28.53;27.06;40.27;;
67306;Laerm;57661;51.436;5.978;2023-08-01T00:45:41;28.54;26.93;41.41;;
67306;Laerm;57661;51.436;5.978;2023-08-01T00:45:52;28.19;27.18;34.67;;
67306;Laerm;57661;51.436;5.978;2023-08-01T00:46:05;28.35;27.11;39.48;;
67306;Laerm;57661;51.436;5.978;2023-08-01T00:46:16;28.19;27.17;33.18;;
67306;Laerm;57661;51.436;5.978;2023-08-01T00:46:26;28.50;26.96;40.48;;
67306;Laerm;57661;51.436;5.978;2023-08-01T00:46:36;28.10;27.25;29.29;;
67306;Laerm;57661;51.436;5.978;2023-08-01T00:46:46;28.40;27.10;39.34;;
67306;Laerm;57661;51.436;5.978;2023-08-01T00:47:00;28.13;27.13;32.96;;
67306;Laerm;57661;51.436;5.978;2023-08-01T00:47:10;28.12;27.19;30.65;;
67306;Laerm;57661;51.436;5.978;2023-08-01T00:47:20;28.54;27.25;41.01;;
67306;Laerm;57661;51.436;5.978;2023-08-01T00:47:31;28.32;27.21;36.77;;
67306;Laerm;57661;51.436;5.978;2023-08-01T00:47:41;28.15;27.24;33.95;;
67306;Laerm;57661;51.436;5.978;2023-08-01T00:47:51;28.10;27.20;28.91;;
67306;Laerm;57661;51.436;5.978;2023-08-01T00:48:02;28.06;27.29;28.87;;
67306;Laerm;57661;51.436;5.978;2023-08-01T00:48:12;28.13;27.29;28.85;;
67306;Laerm;57661;51.436;5.978;2023-08-01T00:48:22;28.09;27.22;29.79;;
67306;Laerm;57661;51.436;5.978;2023-08-01T00:48:32;28.18;27.24;31.70;;
67306;Laerm;57661;51.436;5.978;2023-08-01T00:48:43;28.69;27.21;40.15;;
67306;Laerm;57661;51.436;5.978;2023-08-01T00:48:53;28.16;27.23;32.86;;
67306;Laerm;57661;51.436;5.978;2023-08-01T00:49:07;28.12;26.90;29.05;;
67306;Laerm;57661;51.436;5.978;2023-08-01T00:49:18;28.41;27.21;36.20;;
67306;Laerm;57661;51.436;5.978;2023-08-01T00:49:29;37.19;27.67;45.10;;
67306;Laerm;57661;51.436;5.978;2023-08-01T00:49:39;35.95;30.84;42.03;;
67306;Laerm;57661;51.436;5.978;2023-08-01T00:49:50;34.81;28.11;40.96;;
67306;Laerm;57661;51.436;5.978;2023-08-01T00:50:00;28.44;27.18;30.98;;
67306;Laerm;57661;51.436;5.978;2023-08-01T00:50:11;28.48;27.14;39.12;;
67306;Laerm;57661;51.436;5.978;2023-08-01T00:50:21;28.11;27.15;28.94;;
67306;Laerm;57661;51.436;5.978;2023-08-01T00:50:33;30.34;27.22;48.11;;
67306;Laerm;57661;51.436;5.978;2023-08-01T00:50:43;28.31;26.66;37.91;;
67306;Laerm;57661;51.436;5.978;2023-08-01T00:50:53;28.20;27.10;33.20;;
67306;Laerm;57661;51.436;5.978;2023-08-01T00:51:05;28.29;27.20;35.93;;
67306;Laerm;57661;51.436;5.978;2023-08-01T00:51:16;28.21;27.26;34.49;;
67306;Laerm;57661;51.436;5.978;2023-08-01T00:51:28;28.13;27.12;31.74;;
67306;Laerm;57661;51.436;5.978;2023-08-01T00:51:39;28.11;27.24;28.87;;
67306;Laerm;57661;51.436;5.978;2023-08-01T00:51:49;28.77;27.25;39.27;;
67306;Laerm;57661;51.436;5.978;2023-08-01T00:52:00;28.14;27.25;30.66;;
67306;Laerm;57661;51.436;5.978;2023-08-01T00:52:10;28.06;27.23;28.97;;
67306;Laerm;57661;51.436;5.978;2023-08-01T00:52:20;28.14;27.19;29.07;;
67306;Laerm;57661;51.436;5.978;2023-08-01T00:52:31;28.10;27.18;29.05;;
67306;Laerm;57661;51.436;5.978;2023-08-01T00:52:41;28.11;27.17;29.01;;
67306;Laerm;57661;51.436;5.978;2023-08-01T00:52:52;28.14;27.16;33.10;;
67306;Laerm;57661;51.436;5.978;2023-08-01T00:53:02;28.34;27.17;37.43;;
67306;Laerm;57661;51.436;5.978;2023-08-01T00:53:12;28.10;27.13;28.89;;
67306;Laerm;57661;51.436;5.978;2023-08-01T00:53:23;28.37;27.44;39.23;;
67306;Laerm;57661;51.436;5.978;2023-08-01T00:53:33;28.10;27.09;29.06;;
67306;Laerm;57661;51.436;5.978;2023-08-01T00:53:44;28.11;27.22;28.95;;
67306;Laerm;57661;51.436;5.978;2023-08-01T00:53:56;35.02;27.27;45.43;;
67306;Laerm;57661;51.436;5.978;2023-08-01T00:54:06;37.09;31.62;44.11;;
67306;Laerm;57661;51.436;5.978;2023-08-01T00:54:17;36.64;30.56;41.87;;
67306;Laerm;57661;51.436;5.978;2023-08-01T00:54:27;28.67;27.36;35.18;;
67306;Laerm;57661;51.436;5.978;2023-08-01T00:54:37;28.17;27.11;28.97;;
67306;Laerm;57661;51.436;5.978;2023-08-01T00:54:47;28.32;27.13;37.75;;
67306;Laerm;57661;51.436;5.978;2023-08-01T00:54:58;28.14;27.28;29.46;;
67306;Laerm;57661;51.436;5.978;2023-08-01T00:55:08;28.13;26.92;29.02;;
67306;Laerm;57661;51.436;5.978;2023-08-01T00:55:18;28.16;27.16;33.22;;
67306;Laerm;57661;51.436;5.978;2023-08-01T00:55:29;28.37;27.09;37.00;;
67306;Laerm;57661;51.436;5.978;2023-08-01T00:55:40;28.10;27.16;29.15;;
67306;Laerm;57661;51.436;5.978;2023-08-01T00:55:51;28.10;27.13;29.08;;
67306;Laerm;57661;51.436;5.978;2023-08-01T00:56:02;28.12;27.26;29.35;;
67306;Laerm;57661;51.436;5.978;2023-08-01T00:56:13;28.07;26.93;29.00;;
67306;Laerm;57661;51.436;5.978;2023-08-01T00:56:23;28.12;26.98;28.96;;
67306;Laerm;57661;51.436;5.978;2023-08-01T00:56:34;28.12;27.23;29.05;;
67306;Laerm;57661;51.436;5.978;2023-08-01T00:56:44;28.08;27.10;28.83;;
67306;Laerm;57661;51.436;5.978;2023-08-01T00:56:54;28.17;26.93;35.48;;
67306;Laerm;57661;51.436;5.978;2023-08-01T00:57:05;28.13;27.13;28.94;;
67306;Laerm;57661;51.436;5.978;2023-08-01T00:57:15;28.12;26.70;29.03;;
67306;Laerm;57661;51.436;5.978;2023-08-01T00:57:26;28.10;27.26;29.09;;
67306;Laerm;57661;51.436;5.978;2023-08-01T00:57:36;28.08;27.16;29.17;;
67306;Laerm;57661;51.436;5.978;2023-08-01T00:57:46;28.11;27.17;29.30;;
67306;Laerm;57661;51.436;5.978;2023-08-01T00:57:56;28.10;27.20;29.24;;
67306;Laerm;57661;51.436;5.978;2023-08-01T00:58:07;28.10;27.21;29.21;;
67306;Laerm;57661;51.436;5.978;2023-08-01T00:58:17;28.28;27.27;37.54;;
67306;Laerm;57661;51.436;5.978;2023-08-01T00:58:27;28.11;27.30;28.93;;
67306;Laerm;57661;51.436;5.978;2023-08-01T00:58:37;28.06;27.09;28.89;;
67306;Laerm;57661;51.436;5.978;2023-08-01T00:58:48;28.11;27.21;29.01;;
67306;Laerm;57661;51.436;5.978;2023-08-01T00:58:58;28.15;26.81;34.98;;